Athens, Greece

8:59 PM EEST on October 20, 2014 (GMT +0300)
Kalamaki - AirMar | Change Station
CLOSE
Current Station
Personal Weather Station
Location: Alimos, ATTICA
Elevation: 92 ft
Nearby Weather Stations

Elev 92 ft 37.92 °N, 23.71 °E | Updated 12 minutes ago

Clear
Clear
69.5 °F
Feels Like 69.5 °F
N
0.0
Wind Variable Wind from North

Today
High -- | Low -- °F
--% Chance of Precip.
Yesterday
High -- | Low -- °F
Precip. -- in
7:38 AM 6:41 PM
Waning Crescent, 10% visible
Pressure 30.09 in
Visibility -9999.0 miles
Clouds
Dew Point 49 °F
Humidity 48%
Rainfall 0.00 in
Snow Depth Not available.
UV Not available.
Pollen Not available.
Air Quality Not available.
Flu Activity Not available.
METAR LGAV 201750Z VRB01KT CAVOK 16/09 Q1019 NOSIG

More Conditions Fewer Conditions

Pressure 30.09 in
Visibility -9999.0 miles
Clouds
Dew Point 49 °F
Humidity 48%
Rainfall 0.00 in
Snow Depth Not available.
UV Not available.
Pollen Not available.
Air Quality Not available.
Flu Activity Not available.
METAR LGAV 201750Z VRB01KT CAVOK 16/09 Q1019 NOSIG

More Conditions Fewer Conditions

10-Day Weather Forecast

Almanac

Astronomy

Oct. 20, 2014 Rise Set
Actual Time 7:38 AM EEST 6:41 PM EEST
Civil Twilight 7:11 AM EEST 7:07 PM EEST
Nautical Twilight 6:40 AM EEST 7:38 PM EEST
Astronomical Twilight 6:10 AM EEST 8:08 PM EEST
Moon 4:12 AM EEST 4:51 PM EEST
Length of Visible Light 11h 56m
Length of Day
11h 03m
Tomorrow will be 2m 19s shorter.
Waning Crescent, 10% of the Moon is Illuminated
Today
Waning Crescent
Oct 23
New
Oct 30
First Quarter
Nov 6
Full
Nov 14
Last Quarter

Today's Extremes

Country Highs Country Lows

Community

WunderPhotos

Upload Photos

1,763,446 photos uploaded!

WunderBlogs® & News

Nearby

Snow Depth

Not available.

Earthquake Activity

City Distance Mag. Time & Date
No recent earthquake activity has been reported nearby.
Minimum magnitude displayed is 2.5.

Coastal Water Temperatures

Place Temperature
No Stations Reporting

Nearby Weather Stations